Time;durP1;ratioP1;P1;durP2;ratioP2;P2;SDS_P1;SDS_P2;PMS_P1;PMS_P2;Temp;Humidity;BMP_temperature;BMP_pressure;BME280_temperature;BME280_humidity;BME280_pressure;Samples;Min_cycle;Max_cycle;Signal;HPM_P1;HPM_P2
2021/10/30 00:02:38;;;;;;;39.25;15.38;;;4.70;92.40;;;;;;6259769;28;20129;-85
2021/10/30 00:05:40;;;;;;;66.32;18.27;;;4.70;92.40;;;;;;6259242;28;20041;-85
2021/10/30 00:08:43;;;;;;;31.98;13.95;;;4.70;92.40;;;;;;6259401;28;20148;-85
2021/10/30 00:11:45;;;;;;;35.17;13.88;;;4.60;92.20;;;;;;6258991;28;20434;-85
2021/10/30 00:14:48;;;;;;;45.50;14.50;;;4.50;92.30;;;;;;6236247;28;20046;-85
2021/10/30 00:17:50;;;;;;;33.17;13.23;;;4.50;92.40;;;;;;6235223;28;20046;-85
2021/10/30 00:20:51;;;;;;;31.98;12.10;;;4.40;92.40;;;;;;6235064;28;20070;-84
2021/10/30 00:23:55;;;;;;;35.40;14.93;;;4.40;92.40;;;;;;6243099;28;20084;-85
2021/10/30 00:26:56;;;;;;;27.38;12.57;;;4.30;92.50;;;;;;6238480;28;20049;-85
2021/10/30 00:29:58;;;;;;;30.27;13.52;;;4.30;92.40;;;;;;6258726;28;20473;-84
2021/10/30 00:33:00;;;;;;;32.10;13.25;;;4.30;92.40;;;;;;6267038;28;20113;-84
2021/10/30 00:36:03;;;;;;;30.98;13.18;;;4.20;92.40;;;;;;6269346;28;20546;-84
2021/10/30 00:39:06;;;;;;;23.85;11.35;;;4.10;92.50;;;;;;6268772;28;20055;-84
2021/10/30 00:42:09;;;;;;;21.98;11.27;;;4.10;92.50;;;;;;6270344;28;20057;-83
2021/10/30 00:45:11;;;;;;;16.98;9.77;;;4.10;92.40;;;;;;6271106;28;20049;-84
2021/10/30 00:48:13;;;;;;;24.50;11.25;;;4.00;92.40;;;;;;6269640;28;20118;-84
2021/10/30 00:51:15;;;;;;;22.73;12.15;;;4.00;92.40;;;;;;6269657;28;20112;-85
2021/10/30 00:54:19;;;;;;;22.70;10.32;;;4.00;92.50;;;;;;6274391;28;20049;-84
2021/10/30 00:57:21;;;;;;;25.33;13.23;;;4.00;92.60;;;;;;6260613;28;20481;-84
2021/10/30 01:00:23;;;;;;;22.38;11.15;;;4.10;92.70;;;;;;6257421;28;20129;-85
2021/10/30 01:03:25;;;;;;;28.17;12.70;;;4.10;92.70;;;;;;6261043;28;20046;-84
2021/10/30 01:06:27;;;;;;;22.95;11.80;;;4.10;92.60;;;;;;6258284;28;20131;-83
2021/10/30 01:09:32;;;;;;;28.45;13.23;;;4.20;92.70;;;;;;6258806;28;20118;-84
2021/10/30 01:12:34;;;;;;;47.15;14.90;;;4.20;92.70;;;;;;6259306;28;20042;-84
2021/10/30 01:15:35;;;;;;;65.50;15.60;;;4.30;92.80;;;;;;6251447;28;20418;-84
2021/10/30 01:18:38;;;;;;;56.63;13.35;;;4.40;92.80;;;;;;6260854;28;20116;-84
2021/10/30 01:21:41;;;;;;;39.10;13.13;;;4.50;92.80;;;;;;6258887;28;20045;-84
2021/10/30 01:24:43;;;;;;;37.28;14.57;;;4.50;92.70;;;;;;6261030;28;20805;-84
2021/10/30 01:27:46;;;;;;;39.25;13.55;;;4.50;93.00;;;;;;6261339;28;20485;-84
2021/10/30 01:30:48;;;;;;;31.02;13.75;;;4.50;92.70;;;;;;6257680;28;20052;-83
2021/10/30 01:33:51;;;;;;;100.80;17.73;;;4.50;92.70;;;;;;6261886;28;20100;-82
2021/10/30 01:36:55;;;;;;;43.78;13.80;;;4.40;92.70;;;;;;6256818;28;20052;-86
2021/10/30 01:39:56;;;;;;;48.58;14.18;;;4.50;92.70;;;;;;6253889;28;20060;-85
2021/10/30 01:43:00;;;;;;;39.75;13.70;;;4.40;92.70;;;;;;6252960;28;20486;-86
2021/10/30 01:46:03;;;;;;;64.80;15.75;;;4.40;92.70;;;;;;6254177;28;20052;-84
2021/10/30 01:49:05;;;;;;;46.78;14.18;;;4.40;92.70;;;;;;6256035;28;20423;-83
2021/10/30 01:52:08;;;;;;;44.20;14.25;;;4.30;92.60;;;;;;6251579;28;20555;-82
2021/10/30 01:55:10;;;;;;;44.47;13.63;;;4.30;92.80;;;;;;6255299;28;20136;-83
2021/10/30 01:58:12;;;;;;;45.90;12.88;;;4.30;92.80;;;;;;6253880;28;20125;-83
2021/10/30 02:01:14;;;;;;;39.70;13.45;;;4.30;92.80;;;;;;6250891;28;20049;-83
2021/10/30 02:04:16;;;;;;;33.67;12.23;;;4.20;92.70;;;;;;6251705;28;20171;-82
2021/10/30 02:07:19;;;;;;;31.52;12.77;;;4.10;92.70;;;;;;6252394;28;20051;-86
2021/10/30 02:10:20;;;;;;;37.05;12.80;;;4.10;92.80;;;;;;6251364;28;20091;-83
2021/10/30 02:13:23;;;;;;;29.73;11.00;;;4.10;92.90;;;;;;6251837;28;20045;-84
2021/10/30 02:16:25;;;;;;;58.30;12.88;;;4.10;92.80;;;;;;6236338;28;20148;-83
2021/10/30 02:19:26;;;;;;;34.25;12.43;;;4.00;92.80;;;;;;6246775;28;20513;-83
2021/10/30 02:22:29;;;;;;;31.73;13.10;;;4.00;92.80;;;;;;6226892;28;20486;-83
2021/10/30 02:25:31;;;;;;;23.00;12.32;;;3.90;92.70;;;;;;6226409;28;20140;-83
2021/10/30 02:28:33;;;;;;;30.35;11.82;;;3.90;92.80;;;;;;6226757;28;20052;-83
2021/10/30 02:31:35;;;;;;;27.90;11.27;;;3.90;92.80;;;;;;6227313;28;20049;-83
2021/10/30 02:34:37;;;;;;;33.42;13.57;;;3.80;92.80;;;;;;6226789;28;20054;-83
2021/10/30 02:37:41;;;;;;;29.70;11.32;;;3.80;92.80;;;;;;6225639;28;20079;-84
2021/10/30 02:40:42;;;;;;;21.58;10.32;;;3.80;92.70;;;;;;6224860;28;20128;-84
2021/10/30 02:43:44;;;;;;;31.45;12.95;;;3.70;92.70;;;;;;6225244;28;20077;-83
2021/10/30 02:46:46;;;;;;;34.17;12.98;;;3.70;92.80;;;;;;6225664;28;20042;-84
2021/10/30 02:49:48;;;;;;;26.17;11.15;;;3.70;92.80;;;;;;6225112;28;20104;-85
2021/10/30 02:52:51;;;;;;;25.92;12.25;;;3.70;92.70;;;;;;6226539;28;20038;-83
2021/10/30 02:55:53;;;;;;;33.17;10.88;;;3.80;92.70;;;;;;6230154;28;20248;-84
2021/10/30 02:58:55;;;;;;;29.02;11.85;;;3.60;92.50;;;;;;6234575;28;20042;-83
2021/10/30 03:01:57;;;;;;;26.63;10.48;;;3.50;92.50;;;;;;6235022;28;20054;-84
2021/10/30 03:04:58;;;;;;;27.17;10.80;;;3.40;92.50;;;;;;6231279;28;20050;-85
2021/10/30 03:08:01;;;;;;;25.10;11.73;;;3.30;92.50;;;;;;6229376;28;20535;-82
2021/10/30 03:11:04;;;;;;;25.60;12.48;;;3.30;92.60;;;;;;6231955;28;20046;-84
2021/10/30 03:14:06;;;;;;;23.33;10.20;;;3.30;92.70;;;;;;6227883;28;20100;-87
2021/10/30 03:17:08;;;;;;;28.90;12.25;;;3.20;92.60;;;;;;6232365;28;20073;-83
2021/10/30 03:20:10;;;;;;;28.02;12.35;;;3.20;92.70;;;;;;6229195;28;20073;-83
2021/10/30 03:23:13;;;;;;;23.02;10.95;;;3.20;92.70;;;;;;6234346;28;20139;-85
2021/10/30 03:26:15;;;;;;;19.02;9.90;;;3.20;92.70;;;;;;6234363;28;20048;-85
2021/10/30 03:29:17;;;;;;;19.90;9.55;;;3.20;92.60;;;;;;6236945;28;20113;-84
2021/10/30 03:32:19;;;;;;;24.52;10.18;;;3.10;92.50;;;;;;6238065;28;20053;-84
2021/10/30 03:35:21;;;;;;;20.70;9.30;;;3.10;92.50;;;;;;6238952;28;20585;-85
2021/10/30 03:38:24;;;;;;;22.75;11.18;;;3.10;92.60;;;;;;6238194;28;20124;-84
2021/10/30 03:41:25;;;;;;;22.60;10.57;;;3.00;92.70;;;;;;6240629;28;20137;-85
2021/10/30 03:44:27;;;;;;;20.67;10.10;;;3.00;92.60;;;;;;6238752;28;20052;-85
2021/10/30 03:47:29;;;;;;;23.27;11.55;;;3.10;93.00;;;;;;6238617;28;20088;-85
2021/10/30 03:50:31;;;;;;;21.67;10.90;;;3.10;92.70;;;;;;6238906;28;20109;-85
2021/10/30 03:53:34;;;;;;;26.77;10.90;;;3.10;92.80;;;;;;6238425;28;20085;-84
2021/10/30 03:56:37;;;;;;;20.67;10.70;;;3.10;92.70;;;;;;6237898;28;20073;-84
2021/10/30 03:59:38;;;;;;;24.80;10.50;;;3.10;92.60;;;;;;6236806;28;20419;-85
2021/10/30 04:02:40;;;;;;;23.23;10.93;;;3.00;92.50;;;;;;6236409;28;20419;-84
2021/10/30 04:05:42;;;;;;;25.17;11.20;;;3.00;92.50;;;;;;6238143;28;20058;-85
2021/10/30 04:08:45;;;;;;;34.70;13.55;;;2.90;92.40;;;;;;6239361;28;20076;-84
2021/10/30 04:11:47;;;;;;;35.97;13.02;;;2.90;92.50;;;;;;6236940;28;20113;-84
2021/10/30 04:14:49;;;;;;;30.73;13.23;;;2.90;92.60;;;;;;6236525;28;20055;-84
2021/10/30 04:17:50;;;;;;;30.05;11.25;;;3.00;92.70;;;;;;6249519;28;20117;-85
2021/10/30 04:20:52;;;;;;;21.58;10.88;;;3.00;92.70;;;;;;6256977;28;20056;-83
2021/10/30 04:23:57;;;;;;;30.38;11.48;;;3.00;92.60;;;;;;6259593;28;20404;-84
2021/10/30 04:26:59;;;;;;;39.45;10.88;;;3.00;92.70;;;;;;6257929;28;20060;-84
2021/10/30 04:30:02;;;;;;;25.80;11.30;;;2.90;92.50;;;;;;6256631;28;20071;-84
2021/10/30 04:33:05;;;;;;;45.00;11.40;;;2.90;92.70;;;;;;6256434;28;20053;-84
2021/10/30 04:36:14;;;;;;;22.75;10.85;;;2.90;92.80;;;;;;6259977;28;20033;-83
2021/10/30 04:39:19;;;;;;;18.10;10.10;;;3.00;92.90;;;;;;6258852;28;20188;-83
2021/10/30 04:42:21;;;;;;;27.38;11.15;;;2.90;92.80;;;;;;6259691;28;20103;-83
2021/10/30 04:45:23;;;;;;;19.58;10.07;;;3.00;92.80;;;;;;6261720;28;20045;-84
2021/10/30 04:48:25;;;;;;;37.47;10.43;;;3.00;92.80;;;;;;6260764;28;20061;-84
2021/10/30 04:51:27;;;;;;;34.55;12.90;;;3.00;93.00;;;;;;6260107;28;20446;-83
2021/10/30 04:54:30;;;;;;;36.70;10.52;;;3.00;92.70;;;;;;6258376;28;20136;-84
2021/10/30 04:57:32;;;;;;;50.38;11.30;;;2.90;92.60;;;;;;6258834;28;20045;-84
2021/10/30 05:00:33;;;;;;;58.80;12.15;;;2.90;92.60;;;;;;6259070;28;20064;-84
2021/10/30 05:03:35;;;;;;;48.38;10.80;;;2.80;92.60;;;;;;6260824;28;20491;-83
2021/10/30 05:06:37;;;;;;;40.33;10.32;;;2.80;92.60;;;;;;6259905;28;20124;-84
2021/10/30 05:09:40;;;;;;;35.45;10.18;;;2.70;92.60;;;;;;6259853;28;20056;-86
2021/10/30 05:12:42;;;;;;;33.63;10.55;;;2.70;92.70;;;;;;6259674;28;20069;-85
2021/10/30 05:15:44;;;;;;;28.30;10.65;;;2.60;92.70;;;;;;6259928;28;20077;-84
2021/10/30 05:18:45;;;;;;;24.55;9.93;;;2.60;92.80;;;;;;6246962;28;20423;-84
2021/10/30 05:21:50;;;;;;;24.15;10.60;;;2.60;92.80;;;;;;6257345;28;20045;-85
2021/10/30 05:24:53;;;;;;;21.00;10.98;;;2.60;92.80;;;;;;6257642;28;20104;-84
2021/10/30 05:27:55;;;;;;;21.88;10.73;;;2.60;92.90;;;;;;6255998;28;20436;-85
2021/10/30 05:30:57;;;;;;;24.35;10.25;;;2.60;92.90;;;;;;6253018;28;20172;-82
2021/10/30 05:33:59;;;;;;;22.73;10.70;;;2.60;92.90;;;;;;6248577;28;20486;-82
2021/10/30 05:37:00;;;;;;;21.23;10.80;;;2.60;92.90;;;;;;6248772;28;20045;-82
2021/10/30 05:40:07;;;;;;;28.27;12.05;;;2.60;92.90;;;;;;6248903;28;20054;-83
2021/10/30 05:43:11;;;;;;;23.00;10.68;;;2.70;93.00;;;;;;6249143;28;20546;-81
2021/10/30 05:46:13;;;;;;;21.52;11.98;;;2.70;92.90;;;;;;6249308;28;20060;-82
2021/10/30 05:49:17;;;;;;;22.63;11.63;;;2.70;93.00;;;;;;6247646;28;20048;-82
2021/10/30 05:52:19;;;;;;;23.58;11.23;;;2.80;93.00;;;;;;6249127;28;20058;-83
2021/10/30 05:55:22;;;;;;;24.33;11.57;;;2.90;93.10;;;;;;6249688;28;20049;-83
2021/10/30 05:58:24;;;;;;;20.80;10.10;;;3.00;93.10;;;;;;6248293;28;20071;-83
2021/10/30 06:01:28;;;;;;;27.20;11.93;;;3.10;93.10;;;;;;6245854;28;20049;-82
2021/10/30 06:04:30;;;;;;;24.55;11.75;;;3.20;93.00;;;;;;6225034;28;20176;-83
2021/10/30 06:07:31;;;;;;;20.67;11.15;;;3.20;93.00;;;;;;6223916;28;20514;-83
2021/10/30 06:10:35;;;;;;;26.67;10.90;;;3.30;93.00;;;;;;6223597;28;20050;-83
2021/10/30 06:13:36;;;;;;;21.00;10.98;;;3.30;93.00;;;;;;6223610;28;20058;-82
2021/10/30 06:16:38;;;;;;;26.63;12.27;;;3.30;92.90;;;;;;6223213;28;20053;-81
2021/10/30 06:19:40;;;;;;;22.50;11.75;;;3.40;92.90;;;;;;6225433;28;20050;-81
2021/10/30 06:22:43;;;;;;;24.05;11.05;;;3.30;92.90;;;;;;6249180;28;20049;-81
2021/10/30 06:25:46;;;;;;;29.17;12.82;;;3.30;92.90;;;;;;6248169;28;20045;-82
2021/10/30 06:28:49;;;;;;;32.58;13.35;;;3.40;93.00;;;;;;6247667;28;20045;-82
2021/10/30 06:31:51;;;;;;;29.92;14.35;;;3.50;93.20;;;;;;6248465;28;20081;-82
2021/10/30 06:34:52;;;;;;;34.92;13.73;;;3.70;93.30;;;;;;6247934;28;20059;-82
2021/10/30 06:37:56;;;;;;;26.77;13.77;;;3.80;93.30;;;;;;6247397;28;20450;-82
2021/10/30 06:41:01;;;;;;;33.47;14.00;;;4.00;93.40;;;;;;6247783;28;20072;-82
2021/10/30 06:44:03;;;;;;;35.20;14.88;;;4.20;93.40;;;;;;6248454;28;20427;-82
2021/10/30 06:47:05;;;;;;;28.42;15.32;;;4.40;93.40;;;;;;6248786;28;20134;-82
2021/10/30 06:50:09;;;;;;;25.55;13.25;;;4.60;93.40;;;;;;6247490;28;20068;-82
2021/10/30 06:53:11;;;;;;;29.00;13.65;;;4.70;93.40;;;;;;6248137;28;20052;-83
2021/10/30 06:56:14;;;;;;;25.13;11.68;;;4.90;93.30;;;;;;6246955;28;20136;-83
2021/10/30 06:59:16;;;;;;;24.75;12.50;;;5.00;93.30;;;;;;6248479;28;20049;-83
2021/10/30 07:02:18;;;;;;;24.35;11.10;;;5.10;93.20;;;;;;6252827;28;20057;-83
2021/10/30 07:05:21;;;;;;;20.48;12.07;;;5.20;93.10;;;;;;6252970;28;20129;-83
2021/10/30 07:08:23;;;;;;;22.08;12.48;;;5.20;93.10;;;;;;6253235;28;20049;-84
2021/10/30 07:11:27;;;;;;;20.63;11.40;;;5.30;93.20;;;;;;6253830;28;20119;-82
2021/10/30 07:14:29;;;;;;;19.17;10.40;;;5.40;93.20;;;;;;6253429;28;20084;-81
2021/10/30 07:17:31;;;;;;;21.00;11.27;;;5.50;93.00;;;;;;6253813;28;20060;-82
2021/10/30 07:20:32;;;;;;;19.70;10.90;;;5.50;93.00;;;;;;6253946;28;20053;-83
2021/10/30 07:23:34;;;;;;;19.58;10.80;;;5.60;93.20;;;;;;6259858;28;20054;-82
2021/10/30 07:26:37;;;;;;;21.75;11.13;;;5.80;93.20;;;;;;6255824;28;20053;-82
2021/10/30 07:29:39;;;;;;;20.55;10.40;;;5.90;93.20;;;;;;6258108;28;20470;-80
2021/10/30 07:32:42;;;;;;;18.05;9.95;;;6.00;93.10;;;;;;6234767;28;20504;-81
2021/10/30 07:35:44;;;;;;;19.00;10.70;;;6.10;93.00;;;;;;6228432;28;20056;-81
2021/10/30 07:38:46;;;;;;;17.15;8.50;;;6.10;92.90;;;;;;6228484;28;20045;-82
2021/10/30 07:41:49;;;;;;;18.90;9.68;;;6.20;92.90;;;;;;6240424;28;20056;-82
2021/10/30 07:44:50;;;;;;;16.15;9.75;;;6.20;92.60;;;;;;6217914;28;20110;-82
2021/10/30 07:47:54;;;;;;;17.00;8.75;;;6.10;92.50;;;;;;6204882;28;20479;-83
2021/10/30 07:50:56;;;;;;;17.35;9.48;;;6.10;92.40;;;;;;6205710;28;20050;-83
2021/10/30 07:53:58;;;;;;;17.17;10.10;;;6.00;92.40;;;;;;6211096;28;20118;-83
2021/10/30 07:57:02;;;;;;;18.83;9.98;;;5.90;92.50;;;;;;6210604;28;20070;-82
2021/10/30 08:00:05;;;;;;;24.27;9.57;;;6.00;92.60;;;;;;6213739;28;20248;-84
2021/10/30 08:03:07;;;;;;;19.80;11.60;;;5.90;92.50;;;;;;6211389;28;20134;-84
2021/10/30 08:06:09;;;;;;;19.10;11.07;;;6.00;92.60;;;;;;6217658;28;20050;-83
2021/10/30 08:09:11;;;;;;;26.05;12.85;;;6.10;92.70;;;;;;6212679;28;20049;-82
2021/10/30 08:12:14;;;;;;;21.58;12.00;;;6.10;92.70;;;;;;6218433;28;20050;-83
2021/10/30 08:15:16;;;;;;;23.55;11.77;;;6.20;92.70;;;;;;6211355;28;20074;-84
2021/10/30 08:18:18;;;;;;;20.13;11.43;;;6.30;92.70;;;;;;6199340;28;20636;-84
2021/10/30 08:21:20;;;;;;;20.55;13.40;;;6.30;92.70;;;;;;6199853;28;20043;-83
2021/10/30 08:24:22;;;;;;;19.58;11.18;;;6.40;92.60;;;;;;6190298;28;20496;-84
2021/10/30 08:27:25;;;;;;;24.75;13.38;;;6.40;92.60;;;;;;6205252;28;20425;-84
2021/10/30 08:30:27;;;;;;;21.35;11.07;;;6.40;92.60;;;;;;6209792;28;20135;-84
2021/10/30 08:33:29;;;;;;;17.90;10.38;;;6.50;92.60;;;;;;6207586;28;20578;-81
2021/10/30 08:36:31;;;;;;;23.60;11.18;;;6.50;92.50;;;;;;6209389;28;20048;-84
2021/10/30 08:39:34;;;;;;;21.20;11.82;;;6.50;92.50;;;;;;6210362;28;20057;-83
2021/10/30 08:42:38;;;;;;;21.17;11.13;;;6.60;92.50;;;;;;6207916;28;20055;-83
2021/10/30 08:45:40;;;;;;;17.80;10.68;;;6.60;92.40;;;;;;6207682;28;20133;-84
2021/10/30 08:48:44;;;;;;;18.65;11.43;;;6.60;92.30;;;;;;6198995;28;20106;-83
2021/10/30 08:51:46;;;;;;;18.48;10.05;;;6.60;92.30;;;;;;6207585;28;20058;-84
2021/10/30 08:54:48;;;;;;;19.70;11.27;;;6.60;92.30;;;;;;6207371;28;20042;-84
2021/10/30 08:57:53;;;;;;;20.05;10.57;;;6.70;92.30;;;;;;6207082;28;20064;-84
2021/10/30 09:00:57;;;;;;;18.25;9.85;;;6.70;92.50;;;;;;6209883;28;20109;-83
2021/10/30 09:04:01;;;;;;;16.73;10.07;;;6.80;92.30;;;;;;6213099;28;20074;-83
2021/10/30 09:07:08;;;;;;;19.83;10.43;;;6.80;92.20;;;;;;6209902;28;20057;-82
2021/10/30 09:10:14;;;;;;;19.08;10.43;;;6.90;92.00;;;;;;6207158;28;20047;-84
2021/10/30 09:13:21;;;;;;;26.80;18.10;;;6.90;91.80;;;;;;6204754;28;20836;-85
2021/10/30 09:16:23;;;;;;;19.45;11.55;;;7.00;91.80;;;;;;6200077;28;20046;-83
2021/10/30 09:19:30;;;;;;;22.90;11.80;;;6.90;91.80;;;;;;6197170;28;20090;-83
2021/10/30 09:22:31;;;;;;;16.50;10.50;;;7.00;91.70;;;;;;6193572;28;20053;-83
2021/10/30 09:25:33;;;;;;;19.33;11.40;;;7.00;91.70;;;;;;6179844;28;20051;-84
2021/10/30 09:28:47;;;;;;;19.27;11.45;;;7.10;91.70;;;;;;6179954;28;20049;-84
2021/10/30 09:31:50;;;;;;;17.33;10.18;;;7.10;91.60;;;;;;6181833;28;20050;-84
2021/10/30 09:34:51;;;;;;;20.42;10.88;;;7.10;91.60;;;;;;6176057;28;20057;-84
2021/10/30 09:37:54;;;;;;;22.83;10.68;;;7.10;91.50;;;;;;6186875;28;20074;-82
2021/10/30 09:40:55;;;;;;;16.55;10.20;;;7.10;91.40;;;;;;6185759;28;20051;-83
2021/10/30 09:44:00;;;;;;;18.23;11.85;;;7.10;91.30;;;;;;6187429;28;20114;-83
2021/10/30 09:47:02;;;;;;;20.20;11.43;;;7.20;91.40;;;;;;6188867;28;20043;-83
2021/10/30 09:50:22;;;;;;;19.85;10.65;;;7.20;91.40;;;;;;6192535;28;20046;-82
2021/10/30 09:53:30;;;;;;;20.60;11.07;;;7.20;91.50;;;;;;6186103;28;20069;-82
2021/10/30 09:56:40;;;;;;;22.25;12.00;;;7.20;91.40;;;;;;6196820;28;20058;-82
2021/10/30 09:59:45;;;;;;;20.83;11.20;;;7.20;91.20;;;;;;6190575;28;20134;-82
2021/10/30 10:02:47;;;;;;;22.38;12.02;;;7.10;91.30;;;;;;6176524;28;20055;-85
2021/10/30 10:05:49;;;;;;;19.35;11.15;;;7.20;91.50;;;;;;6177636;28;20102;-86
2021/10/30 10:08:51;;;;;;;24.80;12.55;;;7.20;91.30;;;;;;6183386;28;20432;-83
2021/10/30 10:11:54;;;;;;;20.65;12.15;;;7.10;91.40;;;;;;6184637;28;20046;-83
2021/10/30 10:14:59;;;;;;;24.90;12.77;;;7.00;91.60;;;;;;6182134;28;20042;-85
2021/10/30 10:18:01;;;;;;;23.92;12.50;;;7.00;91.80;;;;;;6196562;28;20526;-89
2021/10/30 10:21:05;;;;;;;29.08;13.55;;;6.90;92.10;;;;;;6184356;28;20185;-86
2021/10/30 10:24:11;;;;;;;27.13;13.75;;;7.00;92.30;;;;;;6197641;28;20062;-83
2021/10/30 10:27:12;;;;;;;24.33;12.95;;;7.00;92.40;;;;;;6206847;28;20121;-86
2021/10/30 10:30:16;;;;;;;34.08;16.23;;;7.00;92.60;;;;;;6202635;28;20129;-86
2021/10/30 10:33:17;;;;;;;29.98;15.63;;;7.10;92.70;;;;;;6203489;28;20077;-84
2021/10/30 10:36:24;;;;;;;25.70;14.38;;;7.10;92.80;;;;;;6201505;28;20467;-85
2021/10/30 10:39:32;;;;;;;25.90;15.25;;;7.10;92.80;;;;;;6203063;28;20140;-87
2021/10/30 10:42:41;;;;;;;27.15;14.95;;;7.10;92.80;;;;;;6203289;28;20405;-86
2021/10/30 10:45:56;;;;;;;27.92;15.80;;;7.10;92.90;;;;;;6200419;28;20050;-85
2021/10/30 10:49:16;;;;;;;28.33;14.50;;;7.10;92.90;;;;;;6184344;28;20125;-86
2021/10/30 10:52:21;;;;;;;27.98;13.95;;;7.10;93.00;;;;;;6184806;28;20047;-83
2021/10/30 10:55:23;;;;;;;32.55;14.85;;;7.10;92.90;;;;;;6181191;28;20133;-85
2021/10/30 10:58:25;;;;;;;28.55;15.02;;;7.10;93.00;;;;;;6181676;28;20054;-85
2021/10/30 11:01:29;;;;;;;37.28;17.80;;;7.10;93.10;;;;;;6178688;28;20055;-85
2021/10/30 11:04:30;;;;;;;27.40;15.73;;;7.10;93.30;;;;;;6174952;28;20050;-85
2021/10/30 11:07:32;;;;;;;31.52;15.45;;;7.10;93.30;;;;;;6178570;28;20493;-84
2021/10/30 11:10:38;;;;;;;34.35;15.88;;;7.10;93.30;;;;;;6178813;28;20129;-84
2021/10/30 11:13:59;;;;;;;39.25;18.45;;;7.10;93.30;;;;;;6179239;28;20062;-84
2021/10/30 11:17:06;;;;;;;28.67;16.52;;;7.10;93.50;;;;;;6184530;28;20046;-85
2021/10/30 11:20:12;;;;;;;37.00;17.30;;;7.10;93.50;;;;;;6196561;28;20070;-84
2021/10/30 11:23:18;;;;;;;35.10;16.90;;;7.20;93.50;;;;;;6203442;28;20065;-86
2021/10/30 11:26:27;;;;;;;30.33;15.45;;;7.10;93.50;;;;;;6189311;28;20046;-84
2021/10/30 11:29:30;;;;;;;38.17;16.17;;;7.20;93.70;;;;;;6179032;28;20039;-83
2021/10/30 11:32:35;;;;;;;31.67;16.33;;;7.20;93.80;;;;;;6174278;28;20417;-87
2021/10/30 11:35:54;;;;;;;33.15;16.10;;;7.30;94.00;;;;;;6175055;28;20137;-85
2021/10/30 11:38:57;;;;;;;35.25;17.52;;;7.40;94.00;;;;;;6178291;28;20600;-84
2021/10/30 11:42:04;;;;;;;30.70;15.43;;;7.50;94.00;;;;;;6183675;28;20110;-87
2021/10/30 11:45:07;;;;;;;31.25;18.27;;;7.60;94.00;;;;;;6174138;28;20046;-88
2021/10/30 11:48:11;;;;;;;35.55;18.08;;;7.60;94.00;;;;;;6189214;28;20393;-87
2021/10/30 11:51:13;;;;;;;36.15;16.33;;;7.60;94.00;;;;;;6202898;28;20134;-86
2021/10/30 11:54:15;;;;;;;219.73;82.75;;;7.70;94.00;;;;;;6203861;28;20057;-86
2021/10/30 11:57:17;;;;;;;189.60;72.55;;;7.80;94.00;;;;;;6204952;28;20042;-85
2021/10/30 12:00:22;;;;;;;273.30;102.40;;;7.80;94.00;;;;;;6206169;28;20416;-86
2021/10/30 12:03:32;;;;;;;;;;;7.80;94.00;;;;;;6203115;28;20054;-87
2021/10/30 12:06:35;;;;;;;;;;;7.90;94.00;;;;;;6209504;28;20003;-85
2021/10/30 12:09:38;;;;;;;;;;;7.90;93.90;;;;;;6207202;28;19932;-84
2021/10/30 12:12:40;;;;;;;;;;;7.80;93.90;;;;;;6204364;28;19928;-85
2021/10/30 12:15:42;;;;;;;;;;;7.90;93.90;;;;;;6205582;28;19922;-85
2021/10/30 12:18:45;;;;;;;;;;;7.80;93.80;;;;;;6194569;28;19921;-85
2021/10/30 12:21:46;;;;;;;;;;;7.70;93.80;;;;;;6203820;28;19922;-86
2021/10/30 12:24:57;;;;;;;;;;;7.60;93.70;;;;;;6206201;28;19922;-86
2021/10/30 12:27:59;;;;;;;;;;;7.60;93.80;;;;;;6204372;28;19926;-87
2021/10/30 12:31:01;;;;;;;;;;;7.60;93.90;;;;;;6202253;28;19922;-86
2021/10/30 12:34:11;;;;;;;;;;;7.50;93.90;;;;;;6202450;28;20008;-86
2021/10/30 12:37:15;;;;;;;;;;;7.50;93.90;;;;;;6203148;28;20008;-86
2021/10/30 12:40:21;;;;;;;;;;;7.50;94.00;;;;;;6205990;28;19932;-85
2021/10/30 12:43:23;;;;;;;;;;;7.50;94.00;;;;;;6207311;28;20068;-84
2021/10/30 12:46:25;;;;;;;;;;;7.50;94.10;;;;;;6206747;28;19921;-85
2021/10/30 12:49:29;;;;;;;;;;;7.60;94.10;;;;;;6196954;28;19969;-83
2021/10/30 12:52:41;;;;;;;;;;;7.60;94.10;;;;;;6204996;28;19980;-85
2021/10/30 12:55:58;;;;;;;;;;;7.60;94.20;;;;;;6205306;28;20391;-86
2021/10/30 12:59:02;;;;;;;;;;;7.70;94.30;;;;;;6203507;28;20029;-85
2021/10/30 13:02:04;;;;;;;;;;;7.70;94.30;;;;;;6204846;28;19922;-85
2021/10/30 13:05:14;;;;;;;;;;;7.70;94.30;;;;;;6204897;28;19928;-84
2021/10/30 13:08:17;;;;;;;;;;;7.70;94.30;;;;;;6205506;28;19921;-84
2021/10/30 13:11:18;;;;;;;;;;;7.80;94.40;;;;;;6200856;28;19929;-84
2021/10/30 13:14:20;;;;;;;;;;;7.80;94.50;;;;;;6200765;28;19953;-84
2021/10/30 13:17:22;;;;;;;;;;;7.80;94.40;;;;;;6200910;28;19928;-86
2021/10/30 13:20:25;;;;;;;;;;;7.80;94.30;;;;;;6191768;28;19922;-85
2021/10/30 13:23:27;;;;;;;;;;;7.80;94.30;;;;;;6200826;28;19925;-86
2021/10/30 13:26:29;;;;;;;;;;;7.80;94.40;;;;;;6186077;28;20293;-84
2021/10/30 13:29:31;;;;;;;;;;;7.70;94.30;;;;;;6176032;28;19928;-84
2021/10/30 13:32:32;;;;;;;;;;;7.80;94.40;;;;;;6175818;28;19922;-83
2021/10/30 13:35:35;;;;;;;;;;;7.80;94.40;;;;;;6176315;28;19929;-84
2021/10/30 13:38:37;;;;;;;;;;;7.90;94.40;;;;;;6201723;23;19926;-78
2021/10/30 13:41:39;;;;;;;;;;;7.90;94.50;;;;;;6258993;28;19921;-80
2021/10/30 13:44:40;;;;;;;;;;;8.00;94.60;;;;;;6260657;28;19970;-80
2021/10/30 13:47:42;;;;;;;;;;;8.10;94.70;;;;;;6240848;28;19925;-80
2021/10/30 13:54:03;;;;;;;;;;;8.20;94.50;;;;;;6344419;27;19908;-78
2021/10/30 13:57:05;;;;;;;;;;;8.40;94.70;;;;;;6335352;27;19993;-81
2021/10/30 14:00:07;;;;;;;;;;;8.40;94.70;;;;;;6331544;28;19929;-81
2021/10/30 14:03:09;;;;;;;;;;;8.50;94.70;;;;;;6310022;28;19978;-81
2021/10/30 14:09:30;;;;;;;;;;;8.60;94.40;;;;;;6348056;27;19920;-80
2021/10/30 14:12:32;;;;;;;;;;;8.60;94.60;;;;;;6334764;28;19925;-80
2021/10/30 14:15:34;;;;;;;;;;;8.60;94.60;;;;;;6313623;28;19984;-80
2021/10/30 14:18:37;;;;;;;;;;;8.60;94.60;;;;;;6310969;28;19925;-80
2021/10/30 14:21:38;;;;;;;;;;;8.70;94.60;;;;;;6308919;28;19977;-81
2021/10/30 14:24:41;;;;;;;;;;;8.70;94.60;;;;;;6308778;28;19952;-80
2021/10/30 14:27:43;;;;;;;;;;;8.80;94.60;;;;;;6305835;28;19964;-80
2021/10/30 14:30:45;;;;;;;;;;;8.80;94.60;;;;;;6305254;28;19947;-81
2021/10/30 14:35:42;;;;;;;;;;;8.80;94.50;;;;;;6357698;27;19916;-81
2021/10/30 14:38:44;;;;;;;;;;;8.90;94.50;;;;;;6288297;27;20306;-80
2021/10/30 14:41:45;;;;;;;;;;;8.90;94.50;;;;;;6282746;28;19932;-81
2021/10/30 14:44:48;;;;;;;;;;;8.90;94.50;;;;;;6284101;28;19983;-79
2021/10/30 14:47:49;;;;;;;;;;;8.90;94.50;;;;;;6284310;28;19925;-79
2021/10/30 14:50:53;;;;;;;;;;;8.90;94.50;;;;;;6283409;28;19931;-81
2021/10/30 14:53:55;;;;;;;;;;;8.80;94.40;;;;;;6300410;28;19928;-79
2021/10/30 14:56:57;;;;;;;;;;;8.90;94.70;;;;;;6307777;28;20006;-80
2021/10/30 14:59:58;;;;;;;;;;;8.90;94.50;;;;;;6308752;28;19984;-80
2021/10/30 15:03:00;;;;;;;;;;;8.90;94.40;;;;;;6309326;28;19960;-79
2021/10/30 15:06:03;;;;;;;;;;;8.90;94.40;;;;;;6307234;28;20037;-81
2021/10/30 15:09:05;;;;;;;;;;;8.90;94.40;;;;;;6304617;28;19924;-79
2021/10/30 15:12:07;;;;;;;;;;;8.90;94.40;;;;;;6308091;28;19978;-81
2021/10/30 15:15:09;;;;;;;;;;;8.90;94.30;;;;;;6309376;28;20123;-81
2021/10/30 15:20:42;;;;;;;;;;;8.90;94.30;;;;;;6345290;27;20405;-81
2021/10/30 15:28:39;;;;;;;34.30;18.33;;;12.10;95.40;;;;;;6259900;27;20388;-80
2021/10/30 15:31:41;;;;;;;30.38;17.75;;;11.50;95.20;;;;;;6223905;28;20054;-82
2021/10/30 15:34:45;;;;;;;33.45;17.75;;;11.30;94.90;;;;;;6207111;28;20052;-81
2021/10/30 15:37:47;;;;;;;34.10;18.60;;;11.20;94.80;;;;;;6203129;28;20046;-81
2021/10/30 15:40:49;;;;;;;31.27;17.90;;;11.20;94.40;;;;;;6204467;28;20427;-79
2021/10/30 15:43:53;;;;;;;40.45;18.10;;;11.10;94.10;;;;;;6198490;28;20141;-79
2021/10/30 15:46:55;;;;;;;34.55;18.27;;;11.00;94.00;;;;;;6207813;28;20046;-79
2021/10/30 15:49:58;;;;;;;37.22;18.73;;;10.80;94.10;;;;;;6233300;28;20073;-78
2021/10/30 15:53:00;;;;;;;35.78;19.10;;;10.70;94.10;;;;;;6249872;28;20050;-78
2021/10/30 15:56:02;;;;;;;36.53;18.85;;;10.60;94.20;;;;;;6247696;28;20578;-78
2021/10/30 15:59:05;;;;;;;42.72;19.60;;;10.60;94.30;;;;;;6247917;28;20196;-78
2021/10/30 16:02:07;;;;;;;52.85;29.40;;;10.60;94.30;;;;;;6247886;28;20080;-78
2021/10/30 16:05:09;;;;;;;45.63;23.58;;;10.60;94.40;;;;;;6247204;28;20058;-79
2021/10/30 16:08:11;;;;;;;44.75;22.95;;;10.60;94.70;;;;;;6247303;28;20599;-79
2021/10/30 16:11:13;;;;;;;48.72;21.80;;;10.60;94.30;;;;;;6247942;28;20097;-80
2021/10/30 16:14:16;;;;;;;42.42;20.90;;;10.50;93.80;;;;;;6250882;28;20096;-79
2021/10/30 16:17:18;;;;;;;40.50;19.65;;;10.40;94.00;;;;;;6245608;28;20050;-80
2021/10/30 16:20:20;;;;;;;40.20;20.42;;;10.30;94.30;;;;;;6237292;28;20133;-78